Time;durP1;ratioP1;P1;durP2;ratioP2;P2;SDS_P1;SDS_P2;PMS_P1;PMS_P2;Temp;Humidity;BMP_temperature;BMP_pressure;BME280_temperature;BME280_humidity;BME280_pressure;Samples;Min_cycle;Max_cycle;Signal;HPM_P1;HPM_P2
2020/12/10 00:02:01;;;;;;;24.27;8.20;;;;;;;-0.13;76.91;101076.51;127369;1092;104433;-84
2020/12/10 00:04:30;;;;;;;28.87;11.80;;;;;;;-0.14;76.78;101082.45;127395;1092;104451;-86
2020/12/10 00:06:59;;;;;;;29.30;11.53;;;;;;;-0.13;77.05;101073.03;127299;1092;104443;-86
2020/12/10 00:09:28;;;;;;;30.03;11.60;;;;;;;-0.13;77.17;101076.51;127334;1091;104490;-86
2020/12/10 00:11:57;;;;;;;27.90;11.75;;;;;;;-0.11;76.52;101076.64;127400;1092;104546;-86
2020/12/10 00:14:26;;;;;;;27.77;11.47;;;;;;;-0.10;76.59;101083.63;127299;1092;104493;-86
2020/12/10 00:16:54;;;;;;;31.80;13.07;;;;;;;-0.09;76.50;101083.76;127429;1092;104554;-87
2020/12/10 00:19:23;;;;;;;29.03;11.20;;;;;;;-0.08;77.03;101076.91;127303;1092;104492;-86
2020/12/10 00:21:56;;;;;;;30.50;10.97;;;;;;;-0.06;77.24;101075.39;127275;1092;104453;-87
2020/12/10 00:24:24;;;;;;;24.80;8.67;;;;;;;-0.07;77.26;101077.05;127373;1091;104555;-87
2020/12/10 00:26:54;;;;;;;27.50;11.63;;;;;;;-0.06;77.25;101085.71;127347;1091;104435;-85
2020/12/10 00:29:23;;;;;;;33.50;12.10;;;;;;;-0.05;76.55;101080.69;127405;1092;104445;-86
2020/12/10 00:31:51;;;;;;;31.20;11.60;;;;;;;-0.05;77.02;101065.20;127396;1091;104429;-87
2020/12/10 00:34:20;;;;;;;31.97;11.77;;;;;;;-0.04;76.54;101063.52;127337;1092;104433;-86
2020/12/10 00:36:49;;;;;;;30.30;11.70;;;;;;;-0.02;76.95;101060.31;127348;1092;104434;-86
2020/12/10 00:39:18;;;;;;;29.73;12.13;;;;;;;-0.03;77.36;101055.02;127374;1092;104561;-86
2020/12/10 00:41:52;;;;;;;34.20;12.83;;;;;;;-0.03;76.59;101039.54;127260;1092;104427;-86
2020/12/10 00:44:21;;;;;;;30.82;11.80;;;;;;;0.01;77.15;101030.37;127376;1092;104432;-86
2020/12/10 00:46:50;;;;;;;31.17;12.37;;;;;;;-0.01;76.37;101023.39;127312;1092;104442;-85
2020/12/10 00:49:21;;;;;;;32.17;12.57;;;;;;;-0.04;76.44;101032.55;127343;1091;104455;-86
2020/12/10 00:51:51;;;;;;;31.90;12.70;;;;;;;-0.04;77.07;101033.45;127233;1092;104449;-86
2020/12/10 00:54:22;;;;;;;32.97;12.90;;;;;;;-0.02;77.42;101037.09;127259;1092;104913;-86
2020/12/10 00:56:51;;;;;;;29.87;11.70;;;;;;;0.01;76.70;101036.42;127335;1092;104599;-85
2020/12/10 00:59:20;;;;;;;28.07;11.60;;;;;;;-0.02;77.20;101033.58;127326;1091;104468;-83
2020/12/10 01:01:48;;;;;;;29.23;11.27;;;;;;;-0.03;76.57;101030.11;127322;1092;104440;-83
2020/12/10 01:04:18;;;;;;;33.63;12.10;;;;;;;-0.03;77.21;101029.22;127300;1092;104451;-86
2020/12/10 01:06:47;;;;;;;28.87;11.80;;;;;;;0.00;77.29;101021.73;127361;1092;104482;-86
2020/12/10 01:09:16;;;;;;;29.93;11.60;;;;;;;0.01;76.85;101020.05;127331;1092;105088;-86
2020/12/10 01:11:45;;;;;;;30.10;10.87;;;;;;;0.01;76.64;101015.78;127325;1092;104439;-86
2020/12/10 01:14:14;;;;;;;30.43;12.30;;;;;;;0.00;77.02;101014.00;127375;1092;104430;-86
2020/12/10 01:16:42;;;;;;;31.13;11.80;;;;;;;0.00;77.15;100998.52;127367;1091;104513;-87
2020/12/10 01:19:11;;;;;;;28.57;10.93;;;;;;;0.01;76.76;100991.67;127324;1091;104519;-87
2020/12/10 01:21:40;;;;;;;27.77;11.37;;;;;;;0.01;77.14;100984.83;127315;1092;104638;-85
2020/12/10 01:24:11;;;;;;;25.93;11.23;;;;;;;0.03;77.18;100974.63;127288;1092;104487;-87
2020/12/10 01:26:43;;;;;;;31.67;12.17;;;;;;;0.03;76.79;100978.11;127386;1092;104430;-86
2020/12/10 01:29:11;;;;;;;27.90;11.70;;;;;;;0.01;76.72;100973.61;127342;1092;104441;-86
2020/12/10 01:31:40;;;;;;;26.00;9.85;;;;;;;0.02;76.58;100970.23;127295;1092;104440;-87
2020/12/10 01:34:09;;;;;;;28.17;11.67;;;;;;;-0.02;77.33;100971.66;127285;1092;104484;-86
2020/12/10 01:36:38;;;;;;;27.43;10.43;;;;;;;-0.03;77.40;100970.77;127267;1091;104677;-86
2020/12/10 01:39:07;;;;;;;27.80;11.23;;;;;;;-0.03;77.27;100964.72;127243;1092;104605;-86
2020/12/10 01:41:36;;;;;;;32.05;12.10;;;;;;;-0.04;77.48;100966.37;127270;1092;104325;-87
2020/12/10 01:44:07;;;;;;;27.87;11.17;;;;;;;-0.02;77.46;100962.27;127240;1092;104634;-85
2020/12/10 01:46:38;;;;;;;31.53;12.17;;;;;;;0.01;77.44;100955.55;127245;1092;104452;-87
2020/12/10 01:49:16;;;;;;;35.25;12.75;;;;;;;0.00;77.36;100957.23;127165;1092;104567;-85
2020/12/10 01:51:45;;;;;;;35.63;13.83;;;;;;;0.02;77.11;100962.49;127230;1092;104427;-83
2020/12/10 01:54:14;;;;;;;31.50;12.47;;;;;;;0.03;77.49;100965.20;127251;1092;104541;-87
2020/12/10 01:56:45;;;;;;;31.53;11.97;;;;;;;0.06;76.97;100946.51;127264;1091;104618;-86
2020/12/10 01:59:16;;;;;;;33.07;12.63;;;;;;;0.08;77.20;100948.45;127230;1092;104449;-87
2020/12/10 02:01:45;;;;;;;33.00;12.30;;;;;;;0.11;77.32;100942.63;127159;1093;104548;-86
2020/12/10 02:04:29;;;;;;;33.57;13.47;;;;;;;0.14;77.70;100933.49;127228;1093;104991;-86
2020/12/10 02:07:00;;;;;;;35.05;13.40;;;;;;;0.20;77.34;100927.92;127269;1092;105057;-87
2020/12/10 02:09:30;;;;;;;31.97;13.47;;;;;;;0.24;77.55;100930.00;127248;1092;104603;-86
2020/12/10 02:11:59;;;;;;;31.70;13.20;;;;;;;0.26;77.74;100925.86;127280;1092;104724;-87
2020/12/10 02:14:34;;;;;;;33.80;14.00;;;;;;;0.27;77.09;100922.51;127215;1092;104573;-84
2020/12/10 02:17:04;;;;;;;33.70;13.43;;;;;;;0.28;77.23;100924.33;127228;1092;104426;-87
2020/12/10 02:19:33;;;;;;;35.07;13.33;;;;;;;0.30;77.23;100924.45;127203;1092;104433;-85
2020/12/10 02:22:03;;;;;;;27.37;12.57;;;;;;;0.34;77.48;100924.84;127265;1092;104465;-85
2020/12/10 02:24:32;;;;;;;31.03;13.90;;;;;;;0.36;77.70;100914.64;127262;1092;104459;-86
2020/12/10 02:27:00;;;;;;;34.90;14.33;;;;;;;0.35;77.41;100900.80;127232;1092;104487;-85
2020/12/10 02:29:29;;;;;;;33.50;14.23;;;;;;;0.37;77.85;100906.09;127289;1092;104430;-85
2020/12/10 02:31:59;;;;;;;36.40;14.70;;;;;;;0.39;77.65;100907.15;127261;1092;104494;-84
2020/12/10 02:34:28;;;;;;;25.90;11.40;;;;;;;0.40;77.38;100897.71;127303;1092;103989;-86
2020/12/10 02:36:57;;;;;;;31.47;13.33;;;;;;;0.38;77.34;100900.16;127274;1092;104427;-87
2020/12/10 02:39:26;;;;;;;35.27;14.40;;;;;;;0.36;77.47;100891.41;127343;1091;104862;-85
2020/12/10 02:41:55;;;;;;;30.63;12.93;;;;;;;0.35;77.73;100897.33;127315;1092;104429;-87
2020/12/10 02:44:24;;;;;;;32.77;13.10;;;;;;;0.32;77.58;100885.06;127352;1092;104494;-86
2020/12/10 02:46:53;;;;;;;26.97;10.33;;;;;;;0.33;77.78;100886.88;127413;1091;104455;-86
2020/12/10 03:04:17;;;;;;;29.60;12.43;;;;;;;0.33;78.67;100858.48;126065;1102;104459;-85
2020/12/10 03:07:17;;;;;;;28.43;11.70;;;;;;;0.33;78.01;100866.23;126085;1101;104311;-85
2020/12/10 03:24:24;;;;;;;30.37;12.03;;;;;;;0.42;78.27;100854.84;125985;1104;103688;-83
2020/12/10 03:33:40;;;;;;;31.87;13.83;;;;;;;0.48;78.56;100857.92;126064;1104;104522;-82
2020/12/10 03:36:09;;;;;;;28.60;11.43;;;;;;;0.49;78.82;100852.88;125720;1105;105259;-83
2020/12/10 03:38:37;;;;;;;31.33;13.37;;;;;;;0.50;78.60;100846.06;126128;1102;104503;-82
2020/12/10 03:41:06;;;;;;;32.10;13.27;;;;;;;0.50;78.56;100838.31;126127;1101;104806;-81
2020/12/10 03:43:35;;;;;;;28.50;12.60;;;;;;;0.50;78.84;100844.37;126308;1098;104449;-82
2020/12/10 03:46:04;;;;;;;27.07;11.10;;;;;;;0.49;78.45;100836.50;126506;1098;104586;-82
2020/12/10 03:48:33;;;;;;;30.65;12.10;;;;;;;0.48;78.91;100845.02;126490;1098;104701;-82
2020/12/10 03:51:02;;;;;;;26.27;9.33;;;;;;;0.46;78.55;100846.58;126804;1095;104813;-84
2020/12/10 03:53:31;;;;;;;26.37;9.93;;;;;;;0.42;79.16;100835.11;126806;1095;104611;-84
2020/12/10 03:56:00;;;;;;;21.13;8.07;;;;;;;0.44;79.41;100830.07;126809;1095;104608;-83
2020/12/10 03:58:28;;;;;;;23.17;8.80;;;;;;;0.42;79.31;100824.78;126849;1095;104631;-83
2020/12/10 04:00:57;;;;;;;22.20;9.10;;;;;;;0.42;78.82;100829.02;126857;1095;104762;-82
2020/12/10 04:03:26;;;;;;;27.73;9.80;;;;;;;0.42;79.45;100832.53;126827;1095;104608;-83
2020/12/10 04:05:55;;;;;;;24.17;9.87;;;;;;;0.40;79.58;100828.00;126822;1095;104647;-82
2020/12/10 04:08:24;;;;;;;18.17;7.73;;;;;;;0.39;79.20;100824.53;127199;1091;104461;-82
2020/12/10 04:10:53;;;;;;;22.03;9.07;;;;;;;0.38;79.40;100821.83;127385;1092;104439;-82
2020/12/10 04:13:22;;;;;;;20.77;8.10;;;;;;;0.37;79.29;100810.58;127375;1091;104442;-80
2020/12/10 04:15:51;;;;;;;19.95;7.45;;;;;;;0.37;79.26;100810.58;127368;1092;104679;-81
2020/12/10 04:18:20;;;;;;;21.00;8.67;;;;;;;0.38;79.59;100819.25;127334;1092;104494;-79
2020/12/10 04:20:49;;;;;;;24.93;9.40;;;;;;;0.35;79.49;100813.03;127368;1092;104538;-78
2020/12/10 04:23:18;;;;;;;24.43;9.00;;;;;;;0.36;79.50;100819.13;127407;1092;104513;-78
2020/12/10 04:25:54;;;;;;;22.90;9.23;;;;;;;0.35;79.08;100806.98;127340;1092;104545;-78
2020/12/10 04:28:23;;;;;;;24.77;8.53;;;;;;;0.37;79.17;100801.94;127365;1092;104494;-79
2020/12/10 04:30:53;;;;;;;22.93;8.77;;;;;;;0.40;79.52;100802.19;127311;1092;104506;-80
2020/12/10 04:33:21;;;;;;;22.50;8.70;;;;;;;0.42;79.59;100800.62;127364;1092;104429;-79
2020/12/10 04:35:51;;;;;;;20.93;8.33;;;;;;;0.41;79.51;100804.00;127381;1091;104573;-80
2020/12/10 04:38:20;;;;;;;21.53;8.33;;;;;;;0.40;79.74;100797.02;127390;1092;104436;-80
2020/12/10 04:40:48;;;;;;;20.97;7.73;;;;;;;0.42;79.79;100795.45;127367;1092;104494;-80
2020/12/10 04:43:26;;;;;;;18.90;7.37;;;;;;;0.43;79.97;100795.58;127357;1092;104512;-79
2020/12/10 04:46:00;;;;;;;15.53;6.20;;;;;;;0.45;79.71;100787.96;127368;1091;104552;-79
2020/12/10 04:48:30;;;;;;;17.77;6.90;;;;;;;0.46;79.63;100789.77;127411;1092;104446;-78
2020/12/10 04:51:07;;;;;;;18.83;7.00;;;;;;;0.48;80.01;100793.37;127381;1091;104605;-79
2020/12/10 04:53:36;;;;;;;20.73;8.33;;;;;;;0.49;79.76;100785.75;127370;1092;104491;-79
2020/12/10 04:56:06;;;;;;;21.30;8.53;;;;;;;0.51;80.37;100788.45;127311;1092;104445;-77
2020/12/10 04:58:36;;;;;;;20.33;8.00;;;;;;;0.52;80.28;100785.10;127339;1092;104433;-78
2020/12/10 05:01:05;;;;;;;20.95;8.50;;;;;;;0.56;80.02;100786.23;127389;1092;104433;-78
2020/12/10 05:03:33;;;;;;;17.00;7.27;;;;;;;0.58;80.13;100779.50;127373;1092;104442;-79
2020/12/10 05:06:13;;;;;;;19.40;8.03;;;;;;;0.61;80.12;100778.09;127314;1092;104442;-78
2020/12/10 05:08:44;;;;;;;16.20;5.63;;;;;;;0.61;80.31;100772.00;127294;1092;104923;-79
2020/12/10 05:11:13;;;;;;;19.17;7.10;;;;;;;0.59;79.96;100771.88;127316;1092;104535;-78
2020/12/10 05:13:53;;;;;;;13.00;5.83;;;;;;;0.61;79.94;100770.34;127317;1092;104432;-78
2020/12/10 05:16:23;;;;;;;16.00;6.40;;;;;;;0.63;79.78;100773.05;127379;1091;104539;-76
2020/12/10 05:18:52;;;;;;;17.53;6.20;;;;;;;0.65;79.88;100780.12;127283;1092;104643;-76
2020/12/10 05:21:21;;;;;;;17.80;7.10;;;;;;;0.68;79.72;100777.78;127326;1091;104455;-77
2020/12/10 05:23:50;;;;;;;16.17;5.37;;;;;;;0.68;80.12;100788.11;127363;1092;104433;-77
2020/12/10 05:26:19;;;;;;;18.20;6.60;;;;;;;0.67;80.02;100791.50;127335;1092;104443;-78
2020/12/10 05:28:50;;;;;;;16.17;6.50;;;;;;;0.67;80.01;100786.33;127341;1092;104490;-78
2020/12/10 05:31:21;;;;;;;14.60;6.07;;;;;;;0.69;80.06;100774.43;127354;1091;104427;-79
2020/12/10 05:33:56;;;;;;;15.03;5.77;;;;;;;0.70;80.09;100762.41;127347;1090;104493;-76
2020/12/10 05:36:26;;;;;;;15.33;5.97;;;;;;;0.70;80.09;100770.16;127368;1091;104430;-76
2020/12/10 05:39:03;;;;;;;14.73;5.73;;;;;;;0.70;80.17;100770.16;127318;1092;104599;-75
2020/12/10 05:41:34;;;;;;;23.20;7.77;;;;;;;0.69;79.56;100783.88;127404;1090;104497;-78
2020/12/10 05:44:18;;;;;;;17.77;5.97;;;;;;;0.70;80.15;100791.74;127357;1092;104561;-77
2020/12/10 05:46:52;;;;;;;18.23;7.10;;;;;;;0.74;80.43;100776.48;127317;1092;104505;-77
2020/12/10 05:49:22;;;;;;;21.27;7.77;;;;;;;0.77;80.07;100771.56;127374;1092;104433;-78
2020/12/10 05:51:51;;;;;;;13.30;5.43;;;;;;;0.78;80.38;100766.52;127374;1092;104617;-78
2020/12/10 05:54:23;;;;;;;15.67;6.63;;;;;;;0.78;80.20;100775.92;127365;1092;104437;-78
2020/12/10 05:56:56;;;;;;;19.33;7.80;;;;;;;0.78;80.45;100778.52;127340;1091;105099;-76
2020/12/10 05:59:27;;;;;;;13.80;5.40;;;;;;;0.79;80.38;100782.91;127341;1091;104494;-78
2020/12/10 06:01:58;;;;;;;17.00;7.37;;;;;;;0.77;80.48;100771.56;127375;1092;104427;-77
2020/12/10 06:04:28;;;;;;;14.60;6.10;;;;;;;0.79;80.54;100768.30;127397;1092;104433;-76
2020/12/10 06:06:59;;;;;;;17.87;6.83;;;;;;;0.82;80.47;100772.81;127374;1092;104445;-77
2020/12/10 06:09:30;;;;;;;15.63;7.13;;;;;;;0.86;80.41;100767.12;127373;1092;104490;-77
2020/12/10 06:12:02;;;;;;;13.27;5.70;;;;;;;0.86;80.67;100767.12;127304;1092;104848;-76
2020/12/10 06:14:32;;;;;;;17.60;7.03;;;;;;;0.84;80.83;100758.33;127339;1092;104427;-78
2020/12/10 06:17:13;;;;;;;19.70;7.47;;;;;;;0.82;80.53;100760.80;127299;1092;104477;-78
2020/12/10 06:19:43;;;;;;;16.27;6.33;;;;;;;0.83;80.59;100759.13;127383;1091;104503;-79
2020/12/10 06:22:27;;;;;;;15.23;5.97;;;;;;;0.87;80.76;100761.16;127386;1091;104538;-80
2020/12/10 06:24:58;;;;;;;13.43;5.33;;;;;;;0.89;80.82;100757.03;127326;1092;104436;-77
2020/12/10 06:27:29;;;;;;;12.90;5.40;;;;;;;0.89;80.50;100752.75;127439;1091;104557;-77
2020/12/10 06:30:11;;;;;;;10.83;4.87;;;;;;;0.89;80.92;100757.03;127300;1092;104439;-78
2020/12/10 06:32:45;;;;;;;9.60;4.87;;;;;;;0.89;80.56;100751.86;127398;1091;104493;-79
2020/12/10 06:35:31;;;;;;;8.47;3.83;;;;;;;0.89;80.64;100757.03;127344;1091;104439;-77
2020/12/10 06:38:01;;;;;;;8.57;3.77;;;;;;;0.88;80.62;100750.94;127332;1092;104519;-80
2020/12/10 06:40:33;;;;;;;8.03;3.57;;;;;;;0.89;80.96;100747.58;127314;1092;104450;-79
2020/12/10 06:43:03;;;;;;;8.87;4.20;;;;;;;0.91;80.50;100744.23;127365;1091;104513;-80
2020/12/10 06:45:34;;;;;;;7.35;3.40;;;;;;;0.91;80.59;100739.95;127404;1092;104426;-83
2020/12/10 06:48:05;;;;;;;9.37;4.23;;;;;;;0.90;80.68;100743.30;127391;1092;104560;-81
2020/12/10 06:50:37;;;;;;;10.87;5.00;;;;;;;0.91;81.01;100739.06;127366;1092;104557;-79
2020/12/10 06:53:18;;;;;;;10.07;4.23;;;;;;;0.92;80.88;100717.59;127370;1092;104433;-81
2020/12/10 06:56:02;;;;;;;10.60;5.00;;;;;;;0.93;80.98;100728.05;127342;1092;104432;-80
2020/12/10 06:58:40;;;;;;;;;;;;;;;0.96;80.82;100720.53;127403;1092;104519;-79
2020/12/10 07:01:31;;;;;;;11.00;4.93;;;;;;;0.97;80.97;100708.53;127347;1092;104557;-78
2020/12/10 07:04:18;;;;;;;9.60;4.70;;;;;;;0.98;81.09;100708.66;127340;1091;104483;-81
2020/12/10 07:07:08;;;;;;;15.13;6.47;;;;;;;0.98;80.83;100699.98;127357;1092;104499;-80
2020/12/10 07:09:49;;;;;;;14.93;5.60;;;;;;;0.97;81.21;100687.86;127335;1091;104520;-84
2020/12/10 07:12:23;;;;;;;15.03;6.13;;;;;;;1.00;81.07;100695.85;127365;1092;104438;-80
2020/12/10 07:14:52;;;;;;;15.18;5.87;;;;;;;1.00;81.38;100693.27;127352;1092;104552;-82
2020/12/10 07:17:22;;;;;;;7.35;3.70;;;;;;;1.00;81.11;100693.27;127269;1092;104442;-84
2020/12/10 07:19:51;;;;;;;15.47;5.37;;;;;;;1.01;80.77;100684.70;127423;1092;104490;-84
2020/12/10 07:22:20;;;;;;;12.30;5.00;;;;;;;1.05;81.08;100691.92;127366;1091;105052;-82
2020/12/10 07:24:48;;;;;;;12.50;4.80;;;;;;;1.07;81.12;100683.48;127423;1092;102935;-84
2020/12/10 07:27:18;;;;;;;12.37;5.10;;;;;;;1.05;81.28;100676.42;127246;1093;104439;-79
2020/12/10 07:29:55;;;;;;;11.17;5.23;;;;;;;1.07;81.09;100677.42;127321;1092;104519;-79
2020/12/10 07:32:26;;;;;;;6.43;3.63;;;;;;;1.09;81.14;100673.27;127371;1092;104530;-81
2020/12/10 07:34:56;;;;;;;11.83;5.60;;;;;;;1.12;81.28;100675.19;127408;1091;104619;-81
2020/12/10 07:37:31;;;;;;;10.13;4.80;;;;;;;1.16;81.19;100672.95;127338;1092;104557;-80
2020/12/10 07:40:11;;;;;;;9.93;5.13;;;;;;;1.17;80.91;100671.27;127360;1092;104570;-86
2020/12/10 07:42:42;;;;;;;11.80;5.17;;;;;;;1.16;81.46;100667.79;127300;1092;104468;-84
2020/12/10 07:45:17;;;;;;;9.20;4.77;;;;;;;1.17;81.08;100673.84;127360;1092;104430;-82
2020/12/10 07:48:00;;;;;;;10.57;5.10;;;;;;;1.18;81.21;100676.55;127349;1092;104446;-83
2020/12/10 07:50:31;;;;;;;10.17;4.70;;;;;;;1.19;81.65;100669.72;127377;1092;104470;-79
2020/12/10 07:53:04;;;;;;;10.50;5.00;;;;;;;1.19;81.26;100659.38;127368;1092;104435;-79
2020/12/10 07:55:37;;;;;;;13.07;5.10;;;;;;;1.20;81.33;100656.91;127351;1091;104478;-81
2020/12/10 07:58:18;;;;;;;9.87;5.00;;;;;;;1.23;81.16;100656.22;127417;1092;104427;-86
2020/12/10 08:00:53;;;;;;;9.67;4.97;;;;;;;1.23;81.46;100661.39;127492;1091;103881;-86
2020/12/10 08:03:28;;;;;;;10.90;4.17;;;;;;;1.23;81.54;100651.97;127302;1092;104436;-84
2020/12/10 08:06:02;;;;;;;;;;;;;;;1.24;81.60;100656.33;127332;1092;104490;-84
2020/12/10 08:08:36;;;;;;;13.72;5.67;;;;;;;1.23;81.21;100666.55;127252;1092;104426;-82
2020/12/10 08:11:15;;;;;;;13.43;5.57;;;;;;;1.25;81.52;100659.84;127302;1092;104442;-84
2020/12/10 08:13:59;;;;;;;12.33;5.10;;;;;;;1.27;81.77;100662.54;127341;1092;104461;-83
2020/12/10 08:16:48;;;;;;;10.70;4.87;;;;;;;1.27;81.75;100659.95;127419;1092;104453;-86
2020/12/10 08:19:19;;;;;;;11.10;5.17;;;;;;;1.26;81.58;100661.62;127382;1092;104436;-85
2020/12/10 08:21:51;;;;;;;11.10;5.17;;;;;;;1.28;81.73;100669.48;127253;1092;104450;-84
2020/12/10 08:24:35;;;;;;;9.63;4.37;;;;;;;1.29;81.63;100664.44;127325;1092;104494;-84
2020/12/10 08:27:13;;;;;;;12.63;5.90;;;;;;;1.31;81.29;100657.72;127300;1092;104398;-85
2020/12/10 08:30:03;;;;;;;13.97;5.90;;;;;;;1.33;81.79;100650.08;127282;1092;104430;-85
2020/12/10 08:32:35;;;;;;;14.43;5.87;;;;;;;1.33;81.47;100639.73;127278;1092;105635;-82
2020/12/10 08:35:10;;;;;;;11.10;5.27;;;;;;;1.34;81.38;100639.84;127262;1092;104551;-84
2020/12/10 08:37:41;;;;;;;16.87;7.30;;;;;;;1.34;81.74;100633.75;127335;1092;104433;-86
2020/12/10 08:40:22;;;;;;;;;;;;;;;1.37;81.54;100632.32;127387;1092;104390;-85
2020/12/10 08:42:52;;;;;;;14.97;6.63;;;;;;;1.36;81.67;100617.58;127286;1092;104435;-80
2020/12/10 08:45:35;;;;;;;15.90;6.65;;;;;;;1.40;81.37;100624.80;127395;1092;104440;-83
2020/12/10 08:48:05;;;;;;;16.10;7.40;;;;;;;1.39;81.43;100615.22;127365;1092;104496;-85
2020/12/10 08:50:35;;;;;;;15.03;6.83;;;;;;;1.37;81.97;100614.22;127401;1091;104586;-82
2020/12/10 08:53:09;;;;;;;17.17;6.87;;;;;;;1.36;81.44;100602.06;127458;1091;104468;-85
2020/12/10 08:55:45;;;;;;;15.17;6.53;;;;;;;1.37;81.55;100608.12;127343;1092;104497;-84
2020/12/10 08:58:21;;;;;;;16.27;6.20;;;;;;;1.38;81.74;100597.02;127295;1092;104516;-80
2020/12/10 09:00:57;;;;;;;14.07;5.73;;;;;;;1.42;82.17;100606.80;127395;1092;104497;-80
2020/12/10 09:03:31;;;;;;;13.33;5.37;;;;;;;1.42;82.02;100601.63;127371;1092;104490;-83
2020/12/10 09:06:10;;;;;;;15.30;6.00;;;;;;;1.44;81.71;100600.05;127261;1092;104385;-82
2020/12/10 09:08:41;;;;;;;15.17;6.67;;;;;;;1.46;81.92;100588.12;127268;1092;104484;-82
2020/12/10 09:11:14;;;;;;;16.67;6.47;;;;;;;1.46;82.06;100580.36;127312;1092;104631;-87
2020/12/10 09:13:45;;;;;;;16.73;6.40;;;;;;;1.45;81.96;100576.00;127398;1092;104433;-86
2020/12/10 09:16:24;;;;;;;15.80;6.47;;;;;;;1.46;82.16;100574.30;127336;1091;104482;-84
2020/12/10 09:18:54;;;;;;;13.70;5.63;;;;;;;1.47;82.05;100583.88;127310;1092;104435;-84
2020/12/10 09:21:33;;;;;;;17.37;7.93;;;;;;;1.47;81.88;100579.59;127346;1092;104439;-85
2020/12/10 09:24:09;;;;;;;18.33;8.10;;;;;;;1.48;82.04;100573.64;127295;1092;104558;-85
2020/12/10 09:26:38;;;;;;;17.20;7.63;;;;;;;1.51;82.21;100571.28;127286;1091;104545;-83
2020/12/10 09:29:07;;;;;;;16.47;7.50;;;;;;;1.55;82.20;100572.39;127291;1092;104601;-84
2020/12/10 09:31:38;;;;;;;15.00;7.67;;;;;;;1.57;81.78;100566.55;127278;1092;104943;-86
2020/12/10 09:34:23;;;;;;;17.07;8.00;;;;;;;1.59;81.85;100566.63;127291;1092;104634;-84
2020/12/10 09:36:53;;;;;;;15.97;7.17;;;;;;;1.60;82.36;100560.68;127364;1091;104632;-87
2020/12/10 09:39:26;;;;;;;19.03;7.93;;;;;;;1.64;82.02;100551.44;127290;1092;104443;-85
2020/12/10 09:42:02;;;;;;;18.17;8.27;;;;;;;1.65;82.00;100548.97;127321;1092;104427;-85
2020/12/10 09:44:32;;;;;;;17.00;7.40;;;;;;;1.67;82.40;100543.91;127244;1092;104571;-82
2020/12/10 09:47:11;;;;;;;17.77;7.80;;;;;;;1.69;82.64;100550.11;127319;1092;104455;-81
2020/12/10 09:49:41;;;;;;;16.90;6.53;;;;;;;1.70;82.75;100534.70;127317;1092;104593;-85
2020/12/10 09:52:18;;;;;;;18.90;8.37;;;;;;;1.70;82.33;100537.28;127297;1092;104440;-84
2020/12/10 09:55:00;;;;;;;18.60;7.60;;;;;;;1.71;82.19;100533.88;127444;1092;104436;-88
2020/12/10 09:57:31;;;;;;;17.07;7.50;;;;;;;1.72;82.13;100522.76;127361;1091;104487;-84
2020/12/10 10:00:09;;;;;;;20.80;8.23;;;;;;;1.71;82.07;100533.88;127490;1091;104458;-82
2020/12/10 10:02:42;;;;;;;18.17;7.90;;;;;;;1.71;82.09;100518.36;127345;1092;104493;-82
2020/12/10 10:05:12;;;;;;;17.37;7.20;;;;;;;1.70;82.52;100521.77;127258;1092;104468;-82
2020/12/10 10:07:42;;;;;;;14.63;6.27;;;;;;;1.71;82.61;100510.60;127276;1092;104436;-81
2020/12/10 10:10:11;;;;;;;19.63;8.57;;;;;;;1.72;82.48;100511.52;127331;1092;104497;-82
2020/12/10 10:12:41;;;;;;;21.05;9.05;;;;;;;1.74;82.35;100509.94;127313;1092;104685;-83
2020/12/10 10:15:10;;;;;;;20.73;9.70;;;;;;;1.77;82.17;100516.21;127362;1092;104562;-83
2020/12/10 10:17:47;;;;;;;19.50;8.77;;;;;;;1.80;82.65;100502.61;127364;1091;104491;-85
2020/12/10 10:20:26;;;;;;;20.13;8.73;;;;;;;1.80;82.54;100503.49;127345;1091;104472;-83
2020/12/10 10:23:34;;;;;;;20.20;9.00;;;;;;;1.83;82.77;100491.59;127343;1092;104465;-86
2020/12/10 10:29:19;;;;;;;16.03;7.03;;;;;;;1.87;82.69;100484.15;127201;1092;104744;-82
2020/12/10 10:31:56;;;;;;;16.10;7.45;;;;;;;1.89;82.79;100482.55;127239;1092;104347;-83
2020/12/10 10:34:26;;;;;;;16.70;7.33;;;;;;;1.92;82.88;100482.77;127318;1091;104427;-86
2020/12/10 10:37:11;;;;;;;16.30;7.10;;;;;;;1.96;82.97;100477.03;127279;1091;104443;-82
2020/12/10 10:39:47;;;;;;;15.53;6.40;;;;;;;2.00;82.92;100470.36;127317;1092;102705;-86
2020/12/10 10:42:21;;;;;;;16.23;6.97;;;;;;;2.02;82.70;100467.87;127280;1092;104491;-87
2020/12/10 10:44:52;;;;;;;19.93;8.30;;;;;;;2.04;82.41;100463.70;127241;1092;104523;-84
2020/12/10 10:47:22;;;;;;;15.80;6.60;;;;;;;2.08;82.85;100461.42;127309;1092;104440;-82
2020/12/10 10:49:51;;;;;;;18.87;8.93;;;;;;;2.10;82.90;100465.05;127255;1091;104488;-86
2020/12/10 10:52:27;;;;;;;19.80;9.30;;;;;;;2.13;82.47;100448.80;127285;1092;104417;-80
2020/12/10 10:54:56;;;;;;;16.90;7.73;;;;;;;2.18;83.13;100457.77;127310;1092;104557;-79
2020/12/10 10:57:26;;;;;;;19.03;8.33;;;;;;;2.20;82.76;100456.20;127238;1092;104516;-79
2020/12/10 11:00:04;;;;;;;21.17;8.53;;;;;;;2.24;82.95;100450.42;127276;1091;104486;-81
2020/12/10 11:02:36;;;;;;;20.70;9.10;;;;;;;2.26;82.88;100448.86;127263;1092;104433;-81
2020/12/10 11:05:11;;;;;;;17.80;8.27;;;;;;;2.30;83.16;100444.77;127301;1092;104589;-84
2020/12/10 11:07:43;;;;;;;19.80;9.57;;;;;;;2.34;83.27;100439.02;127195;1093;104606;-81
2020/12/10 11:10:21;;;;;;;;;;;;;;;2.37;82.89;100428.87;126863;1093;104596;-86
2020/12/10 11:12:51;;;;;;;19.33;8.63;;;;;;;2.39;83.00;100423.80;127236;1092;104800;-82
2020/12/10 11:15:21;;;;;;;19.17;8.60;;;;;;;2.41;82.87;100425.66;127205;1092;104458;-83
2020/12/10 11:17:54;;;;;;;20.10;9.60;;;;;;;2.43;83.34;100418.00;127251;1092;104606;-80
2020/12/10 11:20:28;;;;;;;14.85;6.10;;;;;;;2.46;82.78;100416.53;127302;1091;104442;-84
2020/12/10 11:23:01;;;;;;;16.65;7.85;;;;;;;2.47;83.49;100413.13;127229;1092;104497;-87
2020/12/10 11:25:33;;;;;;;17.43;8.17;;;;;;;2.49;83.73;100415.82;127220;1092;104459;-85
2020/12/10 11:28:03;;;;;;;21.17;9.40;;;;;;;2.51;82.81;100414.25;127276;1092;103158;-85
2020/12/10 11:30:33;;;;;;;21.53;8.93;;;;;;;2.55;83.12;100410.16;127311;1092;104490;-85
2020/12/10 11:33:03;;;;;;;14.43;7.13;;;;;;;2.58;82.93;100410.37;127338;1092;104628;-85
2020/12/10 11:35:33;;;;;;;19.37;8.97;;;;;;;2.61;83.44;100403.69;127251;1092;104594;-82
2020/12/10 11:38:04;;;;;;;19.40;9.03;;;;;;;2.66;83.62;100401.39;127328;1092;103545;-83
2020/12/10 11:40:37;;;;;;;18.73;9.00;;;;;;;2.70;83.63;100400.81;127341;1092;104424;-84
2020/12/10 11:43:08;;;;;;;17.47;8.30;;;;;;;2.71;83.46;100394.81;127370;1092;104548;-84
2020/12/10 11:45:40;;;;;;;18.07;8.30;;;;;;;2.70;83.46;100400.81;127360;1091;104580;-84
2020/12/10 11:55:08;;;;;;;17.83;8.73;;;;;;;2.75;83.03;100412.36;126876;1094;104442;-81
2020/12/10 11:57:38;;;;;;;19.07;8.70;;;;;;;2.79;83.08;100410.86;126882;1093;104439;-81
2020/12/10 12:07:10;;;;;;;18.75;9.15;;;;;;;2.95;83.00;100408.48;126807;1095;104437;-80
2020/12/10 12:09:40;;;;;;;19.50;9.17;;;;;;;2.95;83.75;100402.41;126826;1095;104663;-82
2020/12/10 12:12:14;;;;;;;20.07;9.47;;;;;;;2.96;83.92;100399.00;126809;1095;104574;-83
2020/12/10 12:14:53;;;;;;;15.63;7.40;;;;;;;3.01;83.26;100395.03;126754;1095;104452;-82
2020/12/10 12:17:25;;;;;;;17.97;8.83;;;;;;;3.04;83.02;100396.11;126735;1096;104503;-80
2020/12/10 12:20:06;;;;;;;17.70;8.03;;;;;;;3.11;83.99;100396.50;126820;1096;104446;-86
2020/12/10 12:22:46;;;;;;;14.30;7.03;;;;;;;3.18;83.64;100396.07;126778;1094;104484;-84
2020/12/10 12:25:16;;;;;;;18.33;7.97;;;;;;;3.21;82.95;100391.08;126854;1094;104497;-84